Terminal Aerodrome Forecast
Issued by NWS Cleveland, OH

Home | Current Version | Previous Version | Graphics & Text | Print | Product List | Glossary On
Versions: 1 2 3 4 5 6 7 8 9 10 11 12 13 14 15 16 17 18 19 20 21 22 23 24 25 26 27
000
FTUS41 KCLE 280539
TAFMFD
TAF
KMFD 280539Z 2806/2906 05006KT P6SM SCT040 BKN100
      TEMPO 2806/2807 -SHRA BKN040
     FM280800 05008KT P6SM -SHRA BKN035
     FM281000 07010KT 5SM -SHRA BKN018
     FM281500 04008KT 6SM BR VCSH OVC006
     FM290200 03005KT 3SM BR VCSH OVC004=

USA.gov is the U.S. government's official web portal to all federal, state and local government web resources and services.